Airfield :
LOGIN :

Register | Disclaimer

   EN    FR    IT 

 










Legend :    VFR   Marginal VFR   IFR   Intensive IFR   Very Intensive IFR
Visi :
Ceiling :
>= 8 km
>= 3000ft
5 to 8 km
1000 to 3000 ft
1500m to 5 km
500 to 1000 ft
800 to 1500m
200 to 500 ft
< 800m
< 200 ft
Symbols :   Thunderstorms  Fog  Heavy snow  Heavy precipitations  Wind > 20 kt
SIGMETs :     Misc.  Thunderstorms  Icing  Turbulence  Mountain Waves  Volcanic Ashes







- Airport Elevation : 70 ft
- IATA code : LEI


LEAM - Almeria

CURRENT METAR :
  • 280030Z AUTO VRB04KT 9999 NCD 21/17 Q1015

EXPIRED METARs :
  • 280000Z AUTO VRB02KT 9999 NCD 22/12 Q1015
  • 272330Z AUTO VRB02KT 9999 NCD 22/13 Q1015
  • 272300Z AUTO 04004KT 350V080 9999 NCD 23/13 Q1015
  • 272230Z AUTO 07013KT 9999 NCD 23/14 Q1015

TAF TAF LEAM
Valid from the 27 at 21:00 until the 28 at 21:00 UTC


272000Z 2721/2821 06005KT CAVOK TX29/2811Z TN18/2805Z
No reported NOTAMs for that airfield.
1 SIGMET reported for the Madrid FIR (LECM) :
 
Embedded thunderstorms
LECM SIGMET 1 VALID 280100/280400 LEVA
LECM MADRID FIR/UIR EMBD TS FCST N OF LINE N4230 W007 - N4210 W00410 TOP FL380 MOV N 10KT WKN=



MET'MAP, your aeronautical weather chart ! - Copyright ORBIFLY December 2007 - Disclaimer

ORBIFLY MET'MAP TEAM :

Programming & Development : Alexandra Zaïnal
Concept & Development : Baudouin d'Aumeries
Co-Development & Prog : Marc-Olivier Méhu
Technical & hardware support : Manuel Goepfert

Contact : metmap@orbifly.com




SOURCES & CREDITS :

   NOAA